< < Back
Terminal Aerodrome Forecast


Current Version              Previous Versions:   1  2  3  4  5  6  7  8  9  

Terminal Aerodrome Forecast

092
FTAK31 PAJN 301100
TAFAGS
TAF
PAGS 301130Z 3012/3112 00000KT P6SM BKN005
     FM301700 22009KT P6SM SKC
     FM310400 25004KT P6SM SCT200
      AMD LTD TO CLD VIS AND WIND=

Latest METAR

691
SAUS70 KWBC 301600 RRG
MTRAGS
METAR KAGS 301553Z VRB03KT 10SM SCT035 28/18 A3017 RMK AO2 SLP214
T02830183


USA.gov is the U.S. government's official web portal to all federal, state and local government web resources and services.